Terminal Aerodrome Forecast
Issued by NWS

Home | Current Version | Previous Version | Text Only | Print | Product List | Glossary On
Versions: 1 2 3 4 5 6 7 8 9 10 11 12 13 14 15 16 17 18 19 20 21 22 23 24 25 26 27
000
FTUS45 KLKN 031720
TAFEKO
TAF
KEKO 031720Z 0318/0418 VRB06KT P6SM FEW120 BKN250
     FM032000 26009KT P6SM VCTS BKN110CB
     FM040400 VRB06KT P6SM VCSH BKN100 OVC200
     FM041000 VRB03KT P6SM SCT130 BKN180=

USA.gov is the U.S. government's official web portal to all federal, state and local government web resources and services.